Time;durP1;ratioP1;P1;durP2;ratioP2;P2;SDS_P1;SDS_P2;PMS_P1;PMS_P2;Temp;Humidity;BMP_temperature;BMP_pressure;BME280_temperature;BME280_humidity;BME280_pressure;Samples;Min_cycle;Max_cycle;Signal;HPM_P1;HPM_P2
2022/08/31 00:04:43;;;;;;;1.98;1.42;;;23.80;99.90;;;;;;4214587;28;20198;-79
2022/08/31 00:06:45;;;;;;;1.73;1.50;;;23.80;99.90;;;;;;4214330;28;20291;-79
2022/08/31 00:08:48;;;;;;;3.55;1.60;;;23.80;99.90;;;;;;4210041;28;20210;-78
2022/08/31 00:10:50;;;;;;;2.53;1.50;;;23.80;99.90;;;;;;4214924;28;20252;-79
2022/08/31 00:12:52;;;;;;;2.22;1.40;;;23.80;99.90;;;;;;4214326;28;20258;-79
2022/08/31 00:14:55;;;;;;;1.83;1.40;;;23.80;99.90;;;;;;4210972;28;20210;-79
2022/08/31 00:16:57;;;;;;;3.63;1.48;;;23.80;99.90;;;;;;4209912;28;20211;-79
2022/08/31 00:19:00;;;;;;;2.40;1.60;;;23.70;99.90;;;;;;4214531;28;20214;-79
2022/08/31 00:21:04;;;;;;;2.13;1.30;;;23.70;99.90;;;;;;4210711;28;20210;-78
2022/08/31 00:23:09;;;;;;;2.03;1.60;;;23.80;99.90;;;;;;4213781;28;20346;-78
2022/08/31 00:25:11;;;;;;;1.77;1.50;;;23.80;99.90;;;;;;4214167;28;20620;-79
2022/08/31 00:27:15;;;;;;;1.73;1.40;;;23.80;99.90;;;;;;4214407;28;20211;-79
2022/08/31 00:29:17;;;;;;;2.83;1.52;;;23.80;99.90;;;;;;4214410;28;20708;-79
2022/08/31 00:31:19;;;;;;;1.65;1.20;;;23.80;99.90;;;;;;4211443;28;20235;-79
2022/08/31 00:33:22;;;;;;;2.00;1.30;;;23.80;99.90;;;;;;4214167;28;21076;-79
2022/08/31 00:35:24;;;;;;;1.23;1.13;;;23.70;99.90;;;;;;4214547;28;20276;-79
2022/08/31 00:37:28;;;;;;;1.58;1.30;;;23.80;99.90;;;;;;4210376;28;20269;-79
2022/08/31 00:39:30;;;;;;;1.92;1.40;;;23.80;99.90;;;;;;4213940;28;21091;-79
2022/08/31 00:41:36;;;;;;;2.08;1.42;;;23.80;99.90;;;;;;4213887;28;20633;-79
2022/08/31 00:43:41;;;;;;;1.33;1.23;;;23.80;99.90;;;;;;4213838;28;20210;-78
2022/08/31 00:45:44;;;;;;;2.22;1.42;;;23.80;99.90;;;;;;4214130;28;20218;-79
2022/08/31 00:47:46;;;;;;;2.53;1.48;;;23.80;99.90;;;;;;4213738;28;20316;-79
2022/08/31 00:49:50;;;;;;;2.88;1.48;;;23.80;99.90;;;;;;4213944;28;20276;-79
2022/08/31 00:51:57;;;;;;;1.67;1.10;;;23.70;99.90;;;;;;4214613;28;20268;-79
2022/08/31 00:54:01;;;;;;;1.60;1.17;;;23.70;99.90;;;;;;4213778;28;20282;-78
2022/08/31 00:56:04;;;;;;;1.55;1.40;;;23.80;99.90;;;;;;4210838;28;20259;-79
2022/08/31 00:58:11;;;;;;;1.95;1.52;;;23.80;99.90;;;;;;4212899;28;20218;-79
2022/08/31 01:00:16;;;;;;;1.52;1.40;;;23.80;99.90;;;;;;4213570;28;20674;-79
2022/08/31 01:02:18;;;;;;;1.73;1.40;;;23.70;99.90;;;;;;4213528;28;20295;-79
2022/08/31 01:04:21;;;;;;;1.88;1.23;;;23.70;99.90;;;;;;4213795;28;20248;-79
2022/08/31 01:06:26;;;;;;;1.50;1.40;;;23.70;99.90;;;;;;4212783;28;20219;-79
2022/08/31 01:08:28;;;;;;;2.45;1.77;;;23.70;99.90;;;;;;4207084;28;20218;-79
2022/08/31 01:10:34;;;;;;;2.00;1.50;;;23.70;99.90;;;;;;4215582;28;20310;-79
2022/08/31 01:12:37;;;;;;;1.67;1.35;;;23.80;99.90;;;;;;4215846;28;20214;-79
2022/08/31 01:14:41;;;;;;;1.42;1.33;;;23.70;99.90;;;;;;4210837;28;20219;-79
2022/08/31 01:16:46;;;;;;;2.15;1.40;;;23.70;99.90;;;;;;4211888;28;20260;-79
2022/08/31 01:18:53;;;;;;;1.83;1.45;;;23.70;99.90;;;;;;4213908;28;20229;-79
2022/08/31 01:21:08;;;;;;;1.70;1.35;;;23.70;99.90;;;;;;4213614;28;20260;-79
2022/08/31 01:23:17;;;;;;;2.30;1.35;;;23.70;99.90;;;;;;4211579;28;20330;-82
2022/08/31 01:25:20;;;;;;;1.33;1.23;;;23.70;99.90;;;;;;4214696;28;20191;-82
2022/08/31 01:27:24;;;;;;;2.75;1.65;;;23.70;99.90;;;;;;4214718;28;20260;-82
2022/08/31 01:29:27;;;;;;;1.50;1.40;;;23.70;99.90;;;;;;4211263;28;20650;-82
2022/08/31 01:31:33;;;;;;;2.22;1.30;;;23.70;99.90;;;;;;4214453;28;20654;-82
2022/08/31 01:33:37;;;;;;;4.22;1.30;;;23.70;99.90;;;;;;4214042;28;20222;-82
2022/08/31 01:35:43;;;;;;;2.97;1.50;;;23.70;99.90;;;;;;4209470;28;20271;-82
2022/08/31 01:37:45;;;;;;;1.77;1.23;;;23.70;99.90;;;;;;4214314;28;20663;-82
2022/08/31 01:39:49;;;;;;;1.42;1.23;;;23.70;99.90;;;;;;4208677;28;20215;-82
2022/08/31 01:41:52;;;;;;;2.08;1.15;;;23.70;99.90;;;;;;4213221;28;20275;-82
2022/08/31 01:43:55;;;;;;;2.38;1.40;;;23.70;99.90;;;;;;4212559;28;20574;-82
2022/08/31 01:45:58;;;;;;;1.50;1.27;;;23.70;99.90;;;;;;4212142;28;20267;-82
2022/08/31 01:48:01;;;;;;;1.70;1.35;;;23.70;99.90;;;;;;4211520;28;20222;-82
2022/08/31 01:50:03;;;;;;;1.35;1.25;;;23.70;99.90;;;;;;4212562;28;20226;-82
2022/08/31 01:52:06;;;;;;;1.98;1.40;;;23.70;99.90;;;;;;4212686;28;20210;-82
2022/08/31 01:54:09;;;;;;;1.58;1.40;;;23.70;99.90;;;;;;4212146;28;20260;-82
2022/08/31 01:56:14;;;;;;;1.40;1.30;;;23.70;99.90;;;;;;4210561;28;20226;-81
2022/08/31 01:58:16;;;;;;;3.17;1.55;;;23.70;99.90;;;;;;4212506;28;20356;-82
2022/08/31 02:00:20;;;;;;;4.07;1.58;;;23.70;99.90;;;;;;4212644;28;20244;-82
2022/08/31 02:02:22;;;;;;;1.52;1.25;;;23.70;99.90;;;;;;4210463;28;20246;-81
2022/08/31 02:04:27;;;;;;;1.40;1.20;;;23.70;99.90;;;;;;4212016;28;20218;-82
2022/08/31 02:06:31;;;;;;;2.10;1.40;;;23.70;99.90;;;;;;4211557;28;20234;-82
2022/08/31 02:08:33;;;;;;;1.40;1.30;;;23.70;99.90;;;;;;4211619;28;20264;-82
2022/08/31 02:10:36;;;;;;;2.28;1.60;;;23.60;99.90;;;;;;4212279;28;20256;-82
2022/08/31 02:12:39;;;;;;;1.60;1.20;;;23.70;99.90;;;;;;4213768;28;20654;-82
2022/08/31 02:14:42;;;;;;;2.05;1.40;;;23.70;99.90;;;;;;4207000;28;20679;-82
2022/08/31 02:16:45;;;;;;;1.80;1.45;;;23.60;99.90;;;;;;4212015;28;20222;-82
2022/08/31 02:18:47;;;;;;;2.08;1.30;;;23.70;99.90;;;;;;4211959;28;20219;-82
2022/08/31 02:20:49;;;;;;;1.40;1.30;;;23.60;99.90;;;;;;4208971;28;20307;-82
2022/08/31 02:22:52;;;;;;;2.50;1.38;;;23.70;99.90;;;;;;4212021;28;20242;-82
2022/08/31 02:24:54;;;;;;;1.35;1.02;;;23.70;99.90;;;;;;4212185;28;20210;-82
2022/08/31 02:26:56;;;;;;;2.25;1.45;;;23.60;99.90;;;;;;4212118;28;20214;-82
2022/08/31 02:29:01;;;;;;;2.25;1.38;;;23.70;99.90;;;;;;4212408;28;20210;-82
2022/08/31 02:31:03;;;;;;;1.42;1.20;;;23.70;99.90;;;;;;4209870;28;20622;-82
2022/08/31 02:33:06;;;;;;;2.40;1.70;;;23.60;99.90;;;;;;4212041;28;20202;-82
2022/08/31 02:35:08;;;;;;;2.83;1.52;;;23.60;99.90;;;;;;4212160;28;20214;-82
2022/08/31 02:37:11;;;;;;;1.40;1.20;;;23.60;99.90;;;;;;4209199;28;20320;-82
2022/08/31 02:39:13;;;;;;;2.10;1.67;;;23.60;99.90;;;;;;4212077;28;20214;-82
2022/08/31 02:41:16;;;;;;;4.63;1.40;;;23.60;99.90;;;;;;4211934;28;20737;-82
2022/08/31 02:43:19;;;;;;;2.25;1.48;;;23.60;99.90;;;;;;4211639;28;20234;-82
2022/08/31 02:45:23;;;;;;;2.20;1.38;;;23.70;99.90;;;;;;4212064;28;20215;-82
2022/08/31 02:47:26;;;;;;;1.95;1.27;;;23.60;99.90;;;;;;4211056;28;20234;-82
2022/08/31 02:49:28;;;;;;;2.00;1.30;;;23.60;99.90;;;;;;4211651;28;20547;-82
2022/08/31 02:51:30;;;;;;;3.03;1.30;;;23.60;99.90;;;;;;4211785;28;20264;-82
2022/08/31 02:53:33;;;;;;;1.35;1.15;;;23.60;99.90;;;;;;4208660;28;20627;-82
2022/08/31 02:55:35;;;;;;;1.30;1.10;;;23.60;99.90;;;;;;4211518;28;20737;-82
2022/08/31 02:57:38;;;;;;;1.60;1.30;;;23.60;99.90;;;;;;4211172;28;20218;-82
2022/08/31 02:59:40;;;;;;;2.45;1.40;;;23.60;99.90;;;;;;4203225;28;20936;-82
2022/08/31 03:01:44;;;;;;;1.92;1.40;;;23.60;99.90;;;;;;4209185;28;20263;-82
2022/08/31 03:03:46;;;;;;;2.20;1.40;;;23.60;99.90;;;;;;4211472;28;20238;-82
2022/08/31 03:05:49;;;;;;;1.38;1.20;;;23.60;99.90;;;;;;4210497;28;20267;-82
2022/08/31 03:07:51;;;;;;;1.38;1.20;;;23.60;99.90;;;;;;4211408;28;20218;-82
2022/08/31 03:09:53;;;;;;;1.42;1.25;;;23.50;99.90;;;;;;4211190;28;20248;-82
2022/08/31 03:11:55;;;;;;;1.77;1.30;;;23.60;99.90;;;;;;4209834;28;20217;-82
2022/08/31 03:13:58;;;;;;;1.98;1.38;;;23.60;99.90;;;;;;4210552;28;20218;-82
2022/08/31 03:16:00;;;;;;;1.83;1.30;;;23.60;99.90;;;;;;4213336;28;20271;-82
2022/08/31 03:18:04;;;;;;;2.05;1.48;;;23.60;99.90;;;;;;4211508;28;20219;-82
2022/08/31 03:20:07;;;;;;;1.60;1.40;;;23.60;99.90;;;;;;4211414;28;20214;-82
2022/08/31 03:22:12;;;;;;;2.97;1.70;;;23.50;99.90;;;;;;4210442;28;20214;-82
2022/08/31 03:24:16;;;;;;;1.42;1.30;;;23.50;99.90;;;;;;4211026;28;20246;-82
2022/08/31 03:26:19;;;;;;;1.65;1.25;;;23.60;99.90;;;;;;4211817;28;20264;-82
2022/08/31 03:28:21;;;;;;;1.15;1.05;;;23.60;99.90;;;;;;4210582;28;20226;-82
2022/08/31 03:30:23;;;;;;;1.38;1.00;;;23.50;99.90;;;;;;4211384;28;20271;-82
2022/08/31 03:32:28;;;;;;;2.28;1.70;;;23.50;99.90;;;;;;4211312;28;20230;-82
2022/08/31 03:34:32;;;;;;;1.52;1.10;;;23.50;99.90;;;;;;4211646;28;20219;-82
2022/08/31 03:36:34;;;;;;;1.38;1.27;;;23.50;99.90;;;;;;4211631;28;20275;-82
2022/08/31 03:38:36;;;;;;;2.35;1.35;;;23.50;99.90;;;;;;4209792;28;20215;-82
2022/08/31 03:40:39;;;;;;;1.40;1.30;;;23.50;99.90;;;;;;4211630;28;20339;-82
2022/08/31 03:42:43;;;;;;;2.78;1.40;;;23.50;99.90;;;;;;4211512;28;20272;-82
2022/08/31 03:44:46;;;;;;;1.08;0.98;;;23.50;99.90;;;;;;4206900;28;20257;-82
2022/08/31 03:46:49;;;;;;;1.70;1.13;;;23.50;99.90;;;;;;4210794;28;20629;-82
2022/08/31 03:48:52;;;;;;;1.30;1.10;;;23.50;99.90;;;;;;4211453;28;20211;-82
2022/08/31 03:50:56;;;;;;;1.73;1.20;;;23.50;99.90;;;;;;4211105;28;20244;-82
2022/08/31 03:52:59;;;;;;;1.30;1.20;;;23.50;99.90;;;;;;4211044;28;20206;-82
2022/08/31 03:55:01;;;;;;;1.90;1.15;;;23.50;99.90;;;;;;4210503;28;20267;-82
2022/08/31 03:57:04;;;;;;;1.88;1.45;;;23.50;99.90;;;;;;4211015;28;20206;-82
2022/08/31 03:59:07;;;;;;;1.33;1.23;;;23.50;99.90;;;;;;4211033;28;20291;-82
2022/08/31 04:01:12;;;;;;;1.48;1.38;;;23.50;99.90;;;;;;4210405;28;20222;-83
2022/08/31 04:03:14;;;;;;;1.63;1.20;;;23.50;99.90;;;;;;4210640;28;20243;-82
2022/08/31 04:05:17;;;;;;;1.35;1.13;;;23.40;99.90;;;;;;4211218;28;20207;-82
2022/08/31 04:07:21;;;;;;;2.80;1.10;;;23.40;99.90;;;;;;4211322;28;20268;-82
2022/08/31 04:09:24;;;;;;;1.30;1.20;;;23.50;99.90;;;;;;4210867;28;20275;-82
2022/08/31 04:11:26;;;;;;;1.60;1.40;;;23.50;99.90;;;;;;4212133;28;20260;-82
2022/08/31 04:13:28;;;;;;;1.23;1.13;;;23.40;99.90;;;;;;4213870;28;20688;-82
2022/08/31 04:15:31;;;;;;;1.17;1.08;;;23.50;99.90;;;;;;4214163;28;21056;-82
2022/08/31 04:17:34;;;;;;;1.27;1.10;;;23.40;99.90;;;;;;4213699;28;20622;-82
2022/08/31 04:19:36;;;;;;;1.52;1.20;;;23.40;99.90;;;;;;4212909;28;20214;-82
2022/08/31 04:21:39;;;;;;;1.50;1.35;;;23.40;99.90;;;;;;4214095;28;20272;-82
2022/08/31 04:23:43;;;;;;;2.17;1.10;;;23.40;99.90;;;;;;4214305;28;20234;-82
2022/08/31 04:25:45;;;;;;;2.92;1.40;;;23.40;99.90;;;;;;4214467;28;20219;-82
2022/08/31 04:27:49;;;;;;;1.40;1.30;;;23.50;99.90;;;;;;4213110;28;20219;-82
2022/08/31 04:29:51;;;;;;;1.98;1.30;;;23.40;99.90;;;;;;4212487;28;20230;-82
2022/08/31 04:31:53;;;;;;;1.83;1.20;;;23.40;99.90;;;;;;4214327;28;20642;-82
2022/08/31 04:33:56;;;;;;;2.17;1.33;;;23.50;99.90;;;;;;4214300;28;20628;-82
2022/08/31 04:35:58;;;;;;;1.23;1.00;;;23.50;99.90;;;;;;4213475;28;20215;-83
2022/08/31 04:38:01;;;;;;;1.20;1.10;;;23.40;99.90;;;;;;4214017;28;20218;-82
2022/08/31 04:40:06;;;;;;;1.52;1.20;;;23.40;99.90;;;;;;4213872;28;20218;-82
2022/08/31 04:42:09;;;;;;;1.65;1.15;;;23.40;99.90;;;;;;4212829;28;20215;-82
2022/08/31 04:44:11;;;;;;;1.67;1.20;;;23.40;99.90;;;;;;4213713;28;20275;-82
2022/08/31 04:46:14;;;;;;;1.70;1.00;;;23.40;99.90;;;;;;4213319;28;20654;-82
2022/08/31 04:48:16;;;;;;;2.17;1.17;;;23.40;99.90;;;;;;4209266;28;20210;-82
2022/08/31 04:50:19;;;;;;;1.60;1.10;;;23.40;99.90;;;;;;4213377;28;20234;-82
2022/08/31 04:52:21;;;;;;;2.10;1.30;;;23.40;99.90;;;;;;4211906;28;20667;-82
2022/08/31 04:54:23;;;;;;;1.88;1.48;;;23.40;99.90;;;;;;4212833;28;20263;-82
2022/08/31 04:56:30;;;;;;;1.88;1.25;;;23.40;99.90;;;;;;4210825;28;20279;-82
2022/08/31 04:58:32;;;;;;;2.70;1.38;;;23.40;99.90;;;;;;4210750;28;20767;-82
2022/08/31 05:00:35;;;;;;;2.47;1.30;;;23.40;99.90;;;;;;4212923;28;20260;-82
2022/08/31 05:02:38;;;;;;;2.85;1.20;;;23.40;99.90;;;;;;4213008;28;20624;-82
2022/08/31 05:04:40;;;;;;;1.92;1.40;;;23.40;99.90;;;;;;4210384;28;20298;-82
2022/08/31 05:06:45;;;;;;;1.65;1.15;;;23.40;99.90;;;;;;4213045;28;20663;-82
2022/08/31 05:08:51;;;;;;;1.95;1.38;;;23.40;99.90;;;;;;4213141;28;20222;-82
2022/08/31 05:10:53;;;;;;;1.52;1.20;;;23.40;99.90;;;;;;4211158;28;20655;-82
2022/08/31 05:12:57;;;;;;;2.38;1.38;;;23.40;99.90;;;;;;4213536;28;20558;-82
2022/08/31 05:14:59;;;;;;;1.42;1.10;;;23.40;99.90;;;;;;4213233;28;20654;-82
2022/08/31 05:17:02;;;;;;;1.95;1.40;;;23.40;99.90;;;;;;4213524;28;20654;-82
2022/08/31 05:19:04;;;;;;;1.50;1.00;;;23.40;99.90;;;;;;4210354;28;20259;-82
2022/08/31 05:21:10;;;;;;;2.08;1.20;;;23.40;99.90;;;;;;4213118;28;20256;-82
2022/08/31 05:23:13;;;;;;;1.73;1.38;;;23.40;99.90;;;;;;4214582;28;20214;-82
2022/08/31 05:25:15;;;;;;;2.42;1.20;;;23.40;99.90;;;;;;4212742;28;20238;-82
2022/08/31 05:27:17;;;;;;;0.90;0.90;;;23.40;99.90;;;;;;4210191;28;20202;-82
2022/08/31 05:29:23;;;;;;;2.78;1.45;;;23.40;99.90;;;;;;4213796;28;20222;-82
2022/08/31 05:31:27;;;;;;;1.65;1.20;;;23.40;99.90;;;;;;4212584;28;20267;-83
2022/08/31 05:33:30;;;;;;;2.17;1.30;;;23.40;99.90;;;;;;4208470;28;20256;-82
2022/08/31 05:35:35;;;;;;;1.35;1.20;;;23.40;99.90;;;;;;4212990;28;20238;-82
2022/08/31 05:37:38;;;;;;;1.98;1.20;;;23.40;99.90;;;;;;4210720;28;20340;-82
2022/08/31 05:39:40;;;;;;;1.63;1.27;;;23.40;99.90;;;;;;4212788;28;20214;-82
2022/08/31 05:41:44;;;;;;;1.77;1.15;;;23.40;99.90;;;;;;4213196;28;20603;-82
2022/08/31 05:43:46;;;;;;;1.58;1.00;;;23.40;99.90;;;;;;4210450;28;20638;-82
2022/08/31 05:45:50;;;;;;;1.50;1.30;;;23.40;99.90;;;;;;4212289;28;20222;-82
2022/08/31 05:47:53;;;;;;;1.52;1.17;;;23.30;99.90;;;;;;4212226;28;20275;-82
2022/08/31 05:49:55;;;;;;;3.65;1.30;;;23.40;99.90;;;;;;4210877;28;20291;-82
2022/08/31 05:51:57;;;;;;;1.90;1.17;;;23.30;99.90;;;;;;4212294;28;20263;-83
2022/08/31 05:54:00;;;;;;;1.50;1.00;;;23.30;99.90;;;;;;4212134;28;20223;-82
2022/08/31 05:56:08;;;;;;;2.38;1.20;;;23.30;99.90;;;;;;4209754;28;20214;-83
2022/08/31 05:58:12;;;;;;;2.35;1.20;;;23.40;99.90;;;;;;4209138;28;20222;-79
2022/08/31 06:00:15;;;;;;;1.58;1.30;;;23.40;99.90;;;;;;4210543;28;20214;-79
2022/08/31 06:02:20;;;;;;;1.95;1.10;;;23.40;99.90;;;;;;4210607;28;20744;-79
2022/08/31 06:04:23;;;;;;;1.88;1.30;;;23.30;99.90;;;;;;4211319;28;20706;-79
2022/08/31 06:06:25;;;;;;;2.35;1.10;;;23.30;99.90;;;;;;4211258;28;20219;-79
2022/08/31 06:08:27;;;;;;;1.73;1.17;;;23.30;99.90;;;;;;4211518;28;20226;-79
2022/08/31 06:10:31;;;;;;;1.33;1.20;;;23.40;99.90;;;;;;4210997;28;20226;-79
2022/08/31 06:12:34;;;;;;;1.48;1.17;;;23.30;99.90;;;;;;4209798;28;20222;-79
2022/08/31 06:14:36;;;;;;;3.00;1.13;;;23.40;99.90;;;;;;4211394;28;20214;-79
2022/08/31 06:16:39;;;;;;;2.03;1.23;;;23.40;99.90;;;;;;4211289;28;20260;-79
2022/08/31 06:18:49;;;;;;;4.32;1.60;;;23.30;99.90;;;;;;4209732;28;20226;-79
2022/08/31 06:21:01;;;;;;;1.27;1.17;;;23.40;99.90;;;;;;4210070;28;20214;-79
2022/08/31 06:23:04;;;;;;;1.88;1.20;;;23.40;99.90;;;;;;4211026;28;20210;-79
2022/08/31 06:25:09;;;;;;;1.88;1.40;;;23.40;99.90;;;;;;4211170;28;20996;-79
2022/08/31 06:27:11;;;;;;;5.78;1.35;;;23.40;99.90;;;;;;4211211;28;20210;-79
2022/08/31 06:29:14;;;;;;;1.48;1.30;;;23.40;99.90;;;;;;4210872;28;20206;-79
2022/08/31 06:31:20;;;;;;;2.58;1.17;;;23.40;99.90;;;;;;4211998;28;20264;-79
2022/08/31 06:33:23;;;;;;;1.52;1.17;;;23.40;99.90;;;;;;4211149;28;20215;-79
2022/08/31 06:35:27;;;;;;;3.38;1.63;;;23.40;99.90;;;;;;4203697;28;20210;-79
2022/08/31 06:37:29;;;;;;;2.72;1.23;;;23.40;99.90;;;;;;4210610;28;20214;-79
2022/08/31 06:39:31;;;;;;;2.85;1.30;;;23.40;99.90;;;;;;4210912;28;20218;-79
2022/08/31 06:41:36;;;;;;;1.95;1.15;;;23.40;99.90;;;;;;4211005;28;20873;-79
2022/08/31 06:43:38;;;;;;;1.60;1.30;;;23.40;99.90;;;;;;4209894;28;20260;-79
2022/08/31 06:45:41;;;;;;;2.17;1.30;;;23.40;99.90;;;;;;4209026;28;20234;-79
2022/08/31 06:47:45;;;;;;;1.85;1.10;;;23.40;99.90;;;;;;4210327;28;20275;-79
2022/08/31 06:49:49;;;;;;;3.35;1.40;;;23.40;99.90;;;;;;4210875;28;20222;-79
2022/08/31 06:51:53;;;;;;;2.05;1.23;;;23.40;99.90;;;;;;4208786;28;20658;-79
2022/08/31 06:53:55;;;;;;;2.13;1.40;;;23.50;99.90;;;;;;4210664;28;20657;-79
2022/08/31 06:56:02;;;;;;;2.33;1.20;;;23.40;99.90;;;;;;4210273;28;20271;-79
2022/08/31 06:58:05;;;;;;;1.25;1.02;;;23.40;99.90;;;;;;4208372;28;20272;-79
2022/08/31 07:00:08;;;;;;;1.42;1.20;;;23.40;99.90;;;;;;4208825;28;20222;-79
2022/08/31 07:02:10;;;;;;;3.95;1.50;;;23.40;99.90;;;;;;4210965;28;20290;-79
2022/08/31 07:04:13;;;;;;;2.75;1.65;;;23.40;99.90;;;;;;4210749;28;20218;-79
2022/08/31 07:06:19;;;;;;;3.15;1.70;;;23.40;99.90;;;;;;4211152;28;20597;-78
2022/08/31 07:08:22;;;;;;;3.05;1.55;;;23.30;99.90;;;;;;4207824;28;20218;-79
2022/08/31 07:10:24;;;;;;;3.75;2.00;;;23.30;99.90;;;;;;4203242;28;20256;-79
2022/08/31 07:12:27;;;;;;;5.32;2.22;;;23.30;99.90;;;;;;4205570;28;20223;-79
2022/08/31 07:14:29;;;;;;;2.85;1.77;;;23.20;99.90;;;;;;4207707;28;20274;-78
2022/08/31 07:16:31;;;;;;;5.18;1.92;;;23.20;99.90;;;;;;4208430;28;21444;-79
2022/08/31 07:18:34;;;;;;;5.10;1.67;;;23.20;99.90;;;;;;4212321;28;20264;-79
2022/08/31 07:20:36;;;;;;;4.85;2.05;;;23.30;99.90;;;;;;4208837;28;20214;-79
2022/08/31 07:22:38;;;;;;;5.05;2.10;;;23.20;99.90;;;;;;4205660;28;20267;-79
2022/08/31 07:24:42;;;;;;;6.63;2.45;;;23.00;99.90;;;;;;4211147;28;20670;-82
2022/08/31 07:26:49;;;;;;;5.03;2.40;;;23.00;99.90;;;;;;4202754;28;20655;-84
2022/08/31 07:28:53;;;;;;;3.25;2.30;;;22.80;99.90;;;;;;4206161;28;20256;-82
2022/08/31 07:30:55;;;;;;;7.20;2.53;;;22.90;99.90;;;;;;4202210;28;20218;-84
2022/08/31 07:32:57;;;;;;;5.28;2.38;;;22.80;99.90;;;;;;4209233;28;20294;-85
2022/08/31 07:35:00;;;;;;;4.78;2.72;;;22.70;99.90;;;;;;4203585;28;20210;-86
2022/08/31 07:44:05;;;;;;;9.00;2.55;;;22.60;99.90;;;;;;4211606;28;20203;-88
2022/08/31 07:46:08;;;;;;;6.07;2.53;;;22.70;99.90;;;;;;4209686;28;20230;-81
2022/08/31 07:48:21;;;;;;;8.95;2.67;;;22.60;99.90;;;;;;4213102;28;20264;-85
2022/08/31 07:50:25;;;;;;;16.90;3.45;;;22.60;99.90;;;;;;4211252;28;20265;-86
2022/08/31 07:52:31;;;;;;;20.98;3.30;;;22.50;99.90;;;;;;4214481;28;20206;-86
2022/08/31 07:54:33;;;;;;;19.42;4.10;;;22.50;99.90;;;;;;4205903;28;20244;-84
2022/08/31 07:56:37;;;;;;;13.85;3.13;;;22.60;99.90;;;;;;4208922;28;20211;-84
2022/08/31 07:58:41;;;;;;;14.05;3.35;;;22.50;99.90;;;;;;4211351;28;20234;-83
2022/08/31 08:00:47;;;;;;;18.02;3.63;;;22.50;99.90;;;;;;4209681;28;20355;-81
2022/08/31 08:02:52;;;;;;;9.70;3.38;;;22.50;99.90;;;;;;4211032;28;20210;-82
2022/08/31 08:04:54;;;;;;;10.40;2.92;;;22.50;99.90;;;;;;4215450;28;20259;-82
2022/08/31 08:06:59;;;;;;;5.95;2.60;;;22.40;99.90;;;;;;4214050;28;20242;-82
2022/08/31 08:09:06;;;;;;;11.30;2.80;;;22.50;99.90;;;;;;4212837;28;20211;-82
2022/08/31 08:11:08;;;;;;;9.00;2.78;;;22.60;99.90;;;;;;4211518;28;20249;-80
2022/08/31 08:13:12;;;;;;;7.35;2.88;;;22.50;99.90;;;;;;4214170;28;20211;-81
2022/08/31 08:15:15;;;;;;;9.75;2.85;;;22.40;99.90;;;;;;4206486;28;20210;-81
2022/08/31 08:17:17;;;;;;;7.47;2.47;;;22.50;99.90;;;;;;4210607;28;20219;-82
2022/08/31 08:19:22;;;;;;;5.57;2.65;;;22.50;99.90;;;;;;4209953;28;20210;-84
2022/08/31 08:21:24;;;;;;;11.60;3.47;;;22.60;99.90;;;;;;4217825;28;20261;-83
2022/08/31 08:23:27;;;;;;;4.35;2.70;;;22.50;99.90;;;;;;4209644;28;20199;-83
2022/08/31 08:25:31;;;;;;;4.88;2.50;;;22.50;99.90;;;;;;4219093;28;20209;-80
2022/08/31 08:27:34;;;;;;;4.22;2.38;;;22.60;99.90;;;;;;4207850;28;20203;-79
2022/08/31 08:29:40;;;;;;;4.88;2.80;;;22.50;99.90;;;;;;4223795;28;20661;-81
2022/08/31 08:31:50;;;;;;;4.85;2.83;;;22.50;99.90;;;;;;4209916;28;20218;-81
2022/08/31 08:33:53;;;;;;;6.63;2.85;;;22.40;99.90;;;;;;4204526;28;20206;-80
2022/08/31 08:35:56;;;;;;;5.07;2.70;;;22.40;99.90;;;;;;4211256;28;20214;-81
2022/08/31 08:37:59;;;;;;;5.97;2.90;;;22.50;99.90;;;;;;4212204;28;20677;-81
2022/08/31 08:40:04;;;;;;;6.85;2.90;;;22.50;99.90;;;;;;4220879;28;20329;-82
2022/08/31 08:42:12;;;;;;;7.63;2.78;;;22.50;99.90;;;;;;4219367;28;20291;-84
2022/08/31 08:44:17;;;;;;;7.50;2.90;;;22.50;99.90;;;;;;4222654;28;20214;-83
2022/08/31 08:46:28;;;;;;;4.18;2.78;;;22.50;99.90;;;;;;4207530;28;20235;-83
2022/08/31 08:48:36;;;;;;;6.40;2.70;;;22.50;99.90;;;;;;4201871;28;20206;-83
2022/08/31 08:50:40;;;;;;;7.60;3.05;;;22.60;99.90;;;;;;4209444;28;20232;-83
2022/08/31 08:52:47;;;;;;;7.07;3.28;;;22.60;99.90;;;;;;4208652;28;20206;-85
2022/08/31 08:54:52;;;;;;;6.20;2.58;;;22.60;99.90;;;;;;4206880;28;20203;-84
2022/08/31 08:57:13;;;;;;;8.57;3.00;;;22.70;99.90;;;;;;4209263;28;20223;-85
2022/08/31 08:59:19;;;;;;;5.38;2.90;;;22.70;99.90;;;;;;4204389;28;20230;-85
2022/08/31 09:01:26;;;;;;;5.18;2.97;;;22.70;99.90;;;;;;4214285;28;20263;-87
2022/08/31 09:06:53;;;;;;;3.90;2.38;;;22.80;99.90;;;;;;4142143;28;20289;-82
2022/08/31 09:09:20;;;;;;;7.22;2.88;;;22.90;99.90;;;;;;4204653;28;21661;-82
2022/08/31 09:11:31;;;;;;;5.70;2.97;;;23.00;99.90;;;;;;4213802;28;20206;-83
2022/08/31 09:13:42;;;;;;;5.30;2.70;;;23.00;99.90;;;;;;4211299;28;20601;-81
2022/08/31 09:15:56;;;;;;;5.45;2.55;;;22.80;99.90;;;;;;4214559;28;20264;-87
2022/08/31 09:18:05;;;;;;;4.65;2.60;;;22.90;99.90;;;;;;4214582;28;20271;-86
2022/08/31 09:20:10;;;;;;;3.95;2.70;;;22.90;99.90;;;;;;4212934;28;20978;-85
2022/08/31 09:22:17;;;;;;;4.82;2.42;;;23.00;99.90;;;;;;4214143;28;21062;-84
2022/08/31 09:24:21;;;;;;;7.88;2.70;;;23.00;99.90;;;;;;4209301;28;20202;-82
2022/08/31 09:26:26;;;;;;;6.40;2.80;;;23.00;99.90;;;;;;4212297;28;20242;-83
2022/08/31 09:28:34;;;;;;;4.28;2.60;;;23.00;99.90;;;;;;4210154;28;20222;-83
2022/08/31 09:30:51;;;;;;;9.82;2.63;;;23.00;99.90;;;;;;4211722;28;20229;-84
2022/08/31 09:32:55;;;;;;;7.20;2.70;;;23.00;99.90;;;;;;4210428;28;20218;-84
2022/08/31 09:35:01;;;;;;;7.40;2.47;;;22.90;99.90;;;;;;4209466;28;20218;-84
2022/08/31 09:37:15;;;;;;;6.53;2.53;;;23.10;99.90;;;;;;4209949;28;20199;-82
2022/08/31 09:39:21;;;;;;;6.88;2.63;;;23.00;99.90;;;;;;4211022;28;20210;-84
2022/08/31 09:41:35;;;;;;;7.45;2.70;;;23.00;99.90;;;;;;4209516;28;20222;-87
2022/08/31 09:43:37;;;;;;;6.88;3.10;;;23.00;99.90;;;;;;4208049;28;20218;-85
2022/08/31 09:45:52;;;;;;;5.65;2.63;;;23.10;99.90;;;;;;4209520;28;20218;-82
2022/08/31 09:48:00;;;;;;;4.57;2.45;;;23.00;99.90;;;;;;4212116;28;20638;-83
2022/08/31 09:50:03;;;;;;;5.93;2.78;;;23.10;99.90;;;;;;4213280;28;20214;-82
2022/08/31 09:57:16;;;;;;;6.65;2.47;;;23.10;99.90;;;;;;4210450;28;20206;-83
2022/08/31 09:59:32;;;;;;;6.22;2.70;;;23.10;99.90;;;;;;4206994;28;20641;-82
2022/08/31 10:01:43;;;;;;;3.25;2.60;;;23.10;99.90;;;;;;4208429;28;20296;-81
2022/08/31 10:03:47;;;;;;;5.18;2.60;;;23.10;99.90;;;;;;4203245;28;20215;-81
2022/08/31 10:05:53;;;;;;;4.85;2.35;;;23.10;99.90;;;;;;4207042;28;20237;-83
2022/08/31 10:08:03;;;;;;;5.95;2.67;;;23.20;99.90;;;;;;4208359;28;20227;-81
2022/08/31 10:10:11;;;;;;;3.35;2.15;;;23.20;99.90;;;;;;4208789;28;20210;-81
2022/08/31 10:12:21;;;;;;;6.68;3.00;;;23.30;99.90;;;;;;4208447;28;20206;-83
2022/08/31 10:14:35;;;;;;;6.55;2.50;;;23.20;99.90;;;;;;4208063;28;20210;-80
2022/08/31 10:16:46;;;;;;;4.90;2.83;;;23.20;99.90;;;;;;4209833;28;20622;-84
2022/08/31 10:18:59;;;;;;;5.25;2.88;;;23.30;99.90;;;;;;4211661;28;20260;-85
2022/08/31 10:21:11;;;;;;;5.03;2.83;;;23.30;99.90;;;;;;4213760;28;20207;-85
2022/08/31 10:23:19;;;;;;;4.95;2.60;;;23.30;99.90;;;;;;4212508;28;20617;-83
2022/08/31 10:25:29;;;;;;;5.75;2.35;;;23.30;99.90;;;;;;4209610;28;20779;-81
2022/08/31 10:27:39;;;;;;;6.60;2.95;;;23.30;99.90;;;;;;4204997;28;20275;-81
2022/08/31 10:29:51;;;;;;;5.75;3.00;;;23.40;99.90;;;;;;4211965;28;20214;-81
2022/08/31 10:31:58;;;;;;;6.25;2.60;;;23.40;99.90;;;;;;4212564;28;20662;-81
2022/08/31 10:36:32;;;;;;;5.60;2.65;;;23.40;99.90;;;;;;4208702;28;20240;-83
2022/08/31 10:38:36;;;;;;;5.78;2.50;;;23.40;99.90;;;;;;4205508;28;20314;-83
2022/08/31 10:40:47;;;;;;;9.68;2.50;;;23.50;99.90;;;;;;4208879;28;20269;-81
2022/08/31 10:43:00;;;;;;;6.78;2.80;;;23.50;99.90;;;;;;4209393;28;20221;-80
2022/08/31 10:45:09;;;;;;;6.63;2.70;;;23.50;99.90;;;;;;4205616;28;20206;-80
2022/08/31 10:47:11;;;;;;;5.82;2.17;;;23.50;99.90;;;;;;4207620;28;20682;-79
2022/08/31 10:49:14;;;;;;;11.35;2.80;;;23.50;99.90;;;;;;4208696;28;20218;-81
2022/08/31 10:51:19;;;;;;;5.82;2.70;;;23.50;99.90;;;;;;4200755;28;20214;-82
2022/08/31 10:53:34;;;;;;;5.00;3.13;;;23.50;99.90;;;;;;4212070;28;20210;-81
2022/08/31 10:55:46;;;;;;;5.47;2.70;;;23.50;99.90;;;;;;4207241;28;20222;-81
2022/08/31 10:57:55;;;;;;;10.90;2.75;;;23.50;99.90;;;;;;4205877;28;20202;-81
2022/08/31 11:00:04;;;;;;;7.53;2.40;;;23.50;99.90;;;;;;4209672;28;21037;-80
2022/08/31 11:02:35;;;;;;;7.63;2.50;;;23.50;99.90;;;;;;4208452;28;20205;-80
2022/08/31 11:04:57;;;;;;;7.05;2.97;;;23.50;99.90;;;;;;4211331;28;20655;-80
2022/08/31 11:07:11;;;;;;;3.90;2.40;;;23.60;99.90;;;;;;4209231;28;20230;-81
2022/08/31 11:09:19;;;;;;;2.95;2.20;;;23.60;99.90;;;;;;4210048;28;20221;-81